createdAt,value
2022-10-03T00:00:47.861Z,88.6
2022-10-03T00:01:57.983Z,88.6
2022-10-03T00:03:08.103Z,88.5
2022-10-03T00:04:18.221Z,88.7
2022-10-03T00:05:28.335Z,88.6
2022-10-03T00:06:38.713Z,88.5
2022-10-03T00:07:48.584Z,88.2
2022-10-03T00:08:58.691Z,88.6
2022-10-03T00:10:08.806Z,88.4
2022-10-03T00:11:18.929Z,88.2
2022-10-03T00:12:29.301Z,88.5
2022-10-03T00:13:39.170Z,88.6
2022-10-03T00:14:48.304Z,88.5
2022-10-03T00:15:58.420Z,88.9
2022-10-03T00:17:08.526Z,89.3
2022-10-03T00:18:18.648Z,89.6
2022-10-03T00:19:28.773Z,90.4
2022-10-03T00:20:38.886Z,93
2022-10-03T00:21:49.003Z,95.2
2022-10-03T00:22:59.124Z,97
2022-10-03T00:24:09.235Z,98.2
2022-10-03T00:25:19.356Z,99.1
2022-10-03T00:26:29.725Z,99.5
2022-10-03T00:27:39.600Z,99.6
2022-10-03T00:28:49.704Z,100
2022-10-03T00:29:58.838Z,100
2022-10-03T00:31:09.213Z,100
2022-10-03T00:32:19.079Z,100
2022-10-03T00:33:29.188Z,100
2022-10-03T00:34:39.307Z,100
2022-10-03T00:35:49.423Z,100
2022-10-03T00:38:09.664Z,100
2022-10-03T00:39:19.789Z,100
2022-10-03T00:40:29.899Z,100
2022-10-03T00:41:40.012Z,100
2022-10-03T00:42:50.135Z,99.6
2022-10-03T00:44:00.259Z,99.1
2022-10-03T00:45:09.392Z,99.2
2022-10-03T00:46:19.505Z,99.2
2022-10-03T00:47:29.626Z,99.5
2022-10-03T00:48:39.751Z,99.7
2022-10-03T00:49:49.852Z,99.3
2022-10-03T00:50:59.970Z,99.2
2022-10-03T00:52:09.124Z,99.5
2022-10-03T00:53:19.232Z,99.5
2022-10-03T00:54:29.360Z,99.3
2022-10-03T00:55:39.474Z,99.3
2022-10-03T00:56:49.594Z,98.9
2022-10-03T00:57:59.964Z,99.3
2022-10-03T00:59:09.816Z,99
2022-10-03T01:00:19.939Z,99.1
2022-10-03T01:01:30.067Z,99.4
2022-10-03T01:02:40.174Z,98.9
2022-10-03T01:03:50.296Z,98.5
2022-10-03T01:05:00.000Z,98.5
2022-10-03T01:06:10.529Z,98.9
2022-10-03T01:07:19.663Z,98.4
2022-10-03T01:08:29.788Z,98.6
2022-10-03T01:09:39.889Z,98
2022-10-03T01:10:50.013Z,98.3
2022-10-03T01:12:00.138Z,98.3
2022-10-03T01:13:10.255Z,97.2
2022-10-03T01:14:20.364Z,97.3
2022-10-03T01:15:30.492Z,97
2022-10-03T01:16:40.598Z,97.4
2022-10-03T01:17:50.729Z,97.2
2022-10-03T01:19:00.830Z,96.9
2022-10-03T01:20:10.949Z,96.7
2022-10-03T01:21:21.078Z,97
2022-10-03T01:22:30.212Z,97.5
2022-10-03T01:23:40.315Z,97.4
2022-10-03T01:24:50.437Z,97.7
2022-10-03T01:26:00.561Z,97.1
2022-10-03T01:27:10.927Z,97.8
2022-10-03T01:28:20.791Z,98.2
2022-10-03T01:29:30.914Z,98.1
2022-10-03T01:30:41.036Z,98.6
2022-10-03T01:31:51.140Z,97.9
2022-10-03T01:33:01.259Z,98.2
2022-10-03T01:34:11.045Z,97.2
2022-10-03T01:35:21.494Z,97.7
2022-10-03T01:36:31.616Z,96.9
2022-10-03T01:37:40.754Z,96.3
2022-10-03T01:38:50.876Z,97.2
2022-10-03T01:40:00.982Z,97.5
2022-10-03T01:41:11.109Z,98
2022-10-03T01:42:21.232Z,97.9
2022-10-03T01:43:31.337Z,98.2
2022-10-03T01:44:41.709Z,98.4
2022-10-03T01:45:51.571Z,98
2022-10-03T01:47:01.695Z,98.2
2022-10-03T01:48:11.816Z,97.9
2022-10-03T01:49:21.940Z,97.5
2022-10-03T01:50:32.046Z,97.7
2022-10-03T01:51:42.168Z,98.1
2022-10-03T01:52:51.306Z,98.2
2022-10-03T01:54:01.413Z,98.3
2022-10-03T01:55:11.541Z,99.1
2022-10-03T01:56:21.650Z,99.3
2022-10-03T01:57:32.032Z,99.3
2022-10-03T01:58:41.886Z,99.6
2022-10-03T01:59:52.003Z,100
2022-10-03T02:01:02.394Z,100
2022-10-03T02:02:12.252Z,100
2022-10-03T02:03:22.367Z,100
2022-10-03T02:04:32.472Z,100
2022-10-03T02:05:42.589Z,100
2022-10-03T02:06:52.708Z,100
2022-10-03T02:08:01.840Z,100
2022-10-03T02:09:11.961Z,100
2022-10-03T02:10:22.079Z,100
2022-10-03T02:11:32.198Z,100
2022-10-03T02:12:42.315Z,100
2022-10-03T02:13:52.426Z,100
2022-10-03T02:15:02.552Z,100
2022-10-03T02:16:12.680Z,100
2022-10-03T02:17:22.787Z,100
2022-10-03T02:18:33.158Z,100
2022-10-03T02:19:43.022Z,100
2022-10-03T02:20:53.150Z,100
2022-10-03T02:22:03.271Z,100
2022-10-03T02:23:12.388Z,100
2022-10-03T02:24:22.506Z,100
2022-10-03T02:25:32.631Z,100
2022-10-03T02:26:42.754Z,100
2022-10-03T02:27:52.526Z,100
2022-10-03T02:29:02.977Z,100
2022-10-03T02:30:13.095Z,100
2022-10-03T02:31:23.220Z,100
2022-10-03T02:32:33.590Z,100
2022-10-03T02:33:43.456Z,100
2022-10-03T02:34:53.565Z,100
2022-10-03T02:37:13.818Z,100
2022-10-03T02:38:22.933Z,100
2022-10-03T02:39:33.060Z,100
2022-10-03T02:40:43.171Z,100
2022-10-03T02:41:53.293Z,100
2022-10-03T02:43:03.414Z,100
2022-10-03T02:44:13.522Z,100
2022-10-03T02:45:23.652Z,100
2022-10-03T02:46:33.760Z,100
2022-10-03T02:47:43.876Z,100
2022-10-03T02:48:54.006Z,100
2022-10-03T02:50:04.109Z,100
2022-10-03T02:51:14.237Z,100
2022-10-03T02:52:24.013Z,99.8
2022-10-03T02:53:33.482Z,99.6
2022-10-03T02:54:43.612Z,99.6
2022-10-03T02:55:53.716Z,99.6
2022-10-03T02:57:03.840Z,99.4
2022-10-03T02:58:13.959Z,99.8
2022-10-03T02:59:24.083Z,100
2022-10-03T03:00:34.187Z,99.8
2022-10-03T03:01:44.303Z,99.4
2022-10-03T03:02:54.427Z,99.7
2022-10-03T03:04:04.543Z,99.7
2022-10-03T03:05:14.917Z,99.8
2022-10-03T03:06:25.030Z,99.6
2022-10-03T03:07:34.894Z,99.7
2022-10-03T03:08:44.024Z,99.3
2022-10-03T03:09:54.148Z,99.5
2022-10-03T03:11:04.264Z,99.1
2022-10-03T03:12:14.385Z,99
2022-10-03T03:13:24.494Z,98.5
2022-10-03T03:14:34.870Z,98.8
2022-10-03T03:15:44.738Z,98.7
2022-10-03T03:16:54.853Z,98.9
2022-10-03T03:18:04.980Z,97.7
2022-10-03T03:19:15.084Z,97.2
2022-10-03T03:20:25.211Z,96.9
2022-10-03T03:21:35.320Z,96.5
2022-10-03T03:22:45.445Z,96.8
2022-10-03T03:23:54.584Z,96.5
2022-10-03T03:25:04.693Z,97.8
2022-10-03T03:26:14.819Z,97.2
2022-10-03T03:27:24.928Z,96.9
2022-10-03T03:28:35.054Z,97.1
2022-10-03T03:29:44.823Z,96.6
2022-10-03T03:30:54.935Z,96.8
2022-10-03T03:32:05.398Z,96.7
2022-10-03T03:33:15.527Z,97.1
2022-10-03T03:34:25.641Z,97
2022-10-03T03:35:35.748Z,96.1
2022-10-03T03:36:45.874Z,96.4
2022-10-03T03:37:55.995Z,96.1
2022-10-03T03:39:05.379Z,96
2022-10-03T03:40:15.235Z,96.4
2022-10-03T03:41:25.352Z,96.6
2022-10-03T03:42:35.488Z,96.9
2022-10-03T03:43:45.594Z,97.1
2022-10-03T03:44:55.722Z,97.4
2022-10-03T03:46:05.824Z,97.7
2022-10-03T03:47:15.947Z,97.5
2022-10-03T03:48:26.071Z,97.1
2022-10-03T03:49:36.177Z,96.3
2022-10-03T03:50:46.302Z,96.3
2022-10-03T03:51:56.426Z,95.7
2022-10-03T03:53:06.539Z,94.9
2022-10-03T03:54:15.671Z,95.9
2022-10-03T03:55:25.781Z,95.8
2022-10-03T03:56:35.914Z,95.9
2022-10-03T03:57:46.016Z,95.5
2022-10-03T03:58:56.399Z,94.1
2022-10-03T04:00:06.238Z,94.8
2022-10-03T04:01:16.367Z,94.7
2022-10-03T04:02:26.488Z,95
2022-10-03T04:03:36.268Z,95.8
2022-10-03T04:04:46.718Z,96.1
2022-10-03T04:05:56.000Z,96.8
2022-10-03T04:07:06.956Z,97.1
2022-10-03T04:08:17.062Z,97.5
2022-10-03T04:09:26.197Z,97.8
2022-10-03T04:10:36.321Z,97.7
2022-10-03T04:11:46.449Z,97.8
2022-10-03T04:12:56.552Z,98
2022-10-03T04:14:06.678Z,97.5
2022-10-03T04:15:16.788Z,97.5
2022-10-03T04:16:26.902Z,97.2
2022-10-03T04:17:37.028Z,97
2022-10-03T04:18:47.148Z,97
2022-10-03T04:19:57.261Z,97.3
2022-10-03T04:21:07.376Z,97.6
2022-10-03T04:22:17.494Z,97.4
2022-10-03T04:23:27.282Z,97.8
2022-10-03T04:24:37.015Z,97.2
2022-10-03T04:25:46.859Z,97.5
2022-10-03T04:26:56.644Z,96
2022-10-03T04:29:17.222Z,95.6
2022-10-03T04:30:27.342Z,96.1
2022-10-03T04:31:37.463Z,96.9
2022-10-03T04:32:47.578Z,96.3
2022-10-03T04:33:57.697Z,96.4
2022-10-03T04:35:07.801Z,96.8
2022-10-03T04:36:17.928Z,96.7
2022-10-03T04:37:28.047Z,96.8
2022-10-03T04:38:38.170Z,96.3
2022-10-03T04:39:47.288Z,96.7
2022-10-03T04:40:57.422Z,97
2022-10-03T04:42:07.527Z,96.3
2022-10-03T04:43:17.648Z,96
2022-10-03T04:44:27.769Z,95.6
2022-10-03T04:45:37.889Z,95.1
2022-10-03T04:46:47.021Z,96
2022-10-03T04:47:57.143Z,95.1
2022-10-03T04:49:06.929Z,95.4
2022-10-03T04:50:17.386Z,95.2
2022-10-03T04:51:27.489Z,94.7
2022-10-03T04:52:37.610Z,94.9
2022-10-03T04:53:47.727Z,95.3
2022-10-03T04:54:57.845Z,95.5
2022-10-03T04:56:07.962Z,94.3
2022-10-03T04:57:18.086Z,94.5
2022-10-03T04:58:28.204Z,94.3
2022-10-03T04:59:38.326Z,94.8
2022-10-03T05:00:48.430Z,94.6
2022-10-03T05:01:57.561Z,94.1
2022-10-03T05:03:07.683Z,94.1
2022-10-03T05:04:17.805Z,94.3
2022-10-03T05:05:27.928Z,94.2
2022-10-03T05:06:38.038Z,94.3
2022-10-03T05:07:48.160Z,94.7
2022-10-03T05:08:58.535Z,94.3
2022-10-03T05:10:08.383Z,94.8
2022-10-03T05:11:18.504Z,94.8
2022-10-03T05:12:28.299Z,94.2
2022-10-03T05:13:38.740Z,93.5
2022-10-03T05:14:48.871Z,94.3
2022-10-03T05:15:58.641Z,94.3
2022-10-03T05:17:08.113Z,94.4
2022-10-03T05:18:18.238Z,94.7
2022-10-03T05:19:28.357Z,94.5
2022-10-03T05:20:38.471Z,94.6
2022-10-03T05:21:48.242Z,94.8
2022-10-03T05:22:58.366Z,94.9
2022-10-03T05:24:08.827Z,94.7
2022-10-03T05:25:18.948Z,95
2022-10-03T05:26:29.315Z,94.5
2022-10-03T05:27:39.169Z,94.5
2022-10-03T05:28:49.290Z,94.4
2022-10-03T05:29:59.413Z,94.3
2022-10-03T05:31:09.518Z,94.8
2022-10-03T05:32:18.669Z,94.3
2022-10-03T05:33:28.770Z,94.2
2022-10-03T05:34:38.897Z,94.6
2022-10-03T05:35:49.021Z,93.7
2022-10-03T05:36:59.140Z,94.4
2022-10-03T05:39:19.362Z,93.7
2022-10-03T05:40:29.483Z,92.7
2022-10-03T05:41:39.603Z,92.6
2022-10-03T05:42:49.714Z,92.9
2022-10-03T05:43:59.836Z,92.7
2022-10-03T05:45:09.960Z,91.9
2022-10-03T05:46:20.333Z,91.7
2022-10-03T05:47:29.207Z,92.1
2022-10-03T05:48:39.332Z,92.7
2022-10-03T05:49:49.438Z,92.3
2022-10-03T05:50:59.554Z,92.8
2022-10-03T05:52:09.674Z,92.7
2022-10-03T05:53:19.787Z,92.9
2022-10-03T05:54:29.910Z,92.4
2022-10-03T05:55:40.035Z,92.4
2022-10-03T05:56:50.140Z,92.4
2022-10-03T05:58:00.259Z,91.8
2022-10-03T05:59:10.377Z,92.2
2022-10-03T06:00:20.494Z,92.1
2022-10-03T06:01:30.609Z,92.3
2022-10-03T06:02:39.748Z,92.3
2022-10-03T06:03:49.869Z,92.5
2022-10-03T06:05:00.257Z,92.4
2022-10-03T06:06:10.103Z,92.4
2022-10-03T06:07:20.224Z,92.4
2022-10-03T06:08:30.340Z,93.1
2022-10-03T06:09:40.455Z,92.7
2022-10-03T06:10:50.578Z,93.2
2022-10-03T06:12:00.684Z,93.1
2022-10-03T06:13:10.811Z,92.7
2022-10-03T06:14:20.936Z,93.1
2022-10-03T06:15:31.042Z,92.8
2022-10-03T06:16:41.167Z,92.7
2022-10-03T06:17:50.302Z,92.3
2022-10-03T06:19:00.407Z,92.2
2022-10-03T06:20:10.526Z,92.4
2022-10-03T06:21:20.646Z,92.3
2022-10-03T06:22:30.777Z,92.3
2022-10-03T06:23:40.891Z,91.6
2022-10-03T06:24:50.997Z,91
2022-10-03T06:26:01.123Z,91.5
2022-10-03T06:27:11.230Z,91.1
2022-10-03T06:28:21.365Z,90.5
2022-10-03T06:29:31.472Z,90.4
2022-10-03T06:30:41.591Z,90.4
2022-10-03T06:31:51.704Z,90.5
2022-10-03T06:33:00.834Z,90.1
2022-10-03T06:35:21.079Z,89.7
2022-10-03T06:36:31.202Z,89.9
2022-10-03T06:37:41.321Z,90
2022-10-03T06:38:51.425Z,90
2022-10-03T06:40:01.543Z,90.4
2022-10-03T06:41:11.662Z,90.6
2022-10-03T06:42:21.784Z,90.3
2022-10-03T06:43:31.893Z,89.6
2022-10-03T06:44:42.016Z,90.4
2022-10-03T06:45:52.130Z,90.5
2022-10-03T06:47:02.248Z,90.6
2022-10-03T06:49:21.507Z,90.4
2022-10-03T06:50:31.626Z,90.2
2022-10-03T06:51:41.751Z,90.3
2022-10-03T06:52:51.849Z,90.6
2022-10-03T06:54:01.974Z,90.6
2022-10-03T06:56:22.202Z,90.7
2022-10-03T06:57:31.354Z,90.2
2022-10-03T06:58:40.484Z,90.8
2022-10-03T06:59:49.636Z,90.8
2022-10-03T07:00:58.774Z,90
2022-10-03T07:02:08.893Z,89.3
2022-10-03T07:03:19.001Z,89
2022-10-03T07:04:29.112Z,90
2022-10-03T07:05:39.244Z,88.9
2022-10-03T07:06:49.364Z,89.2
2022-10-03T07:07:59.467Z,89.5
2022-10-03T07:09:09.595Z,90.1
2022-10-03T07:10:19.697Z,88.8
2022-10-03T07:11:29.817Z,88.7
2022-10-03T07:12:38.967Z,88.8
2022-10-03T07:13:48.105Z,88.2
2022-10-03T07:14:58.217Z,89
2022-10-03T07:16:08.340Z,88
2022-10-03T07:17:18.450Z,87.6
2022-10-03T07:18:28.573Z,87.1
2022-10-03T07:19:38.697Z,87.1
2022-10-03T07:20:48.812Z,85.5
2022-10-03T07:21:58.934Z,86.4
2022-10-03T07:23:09.051Z,85.1
2022-10-03T07:24:19.152Z,85.2
2022-10-03T07:25:29.271Z,84.2
2022-10-03T07:26:39.397Z,84
2022-10-03T07:27:49.522Z,85.6
2022-10-03T07:28:58.645Z,85.8
2022-10-03T07:30:08.767Z,85.9
2022-10-03T07:31:18.874Z,86.4
2022-10-03T07:32:28.994Z,86.4
2022-10-03T07:33:39.112Z,86.9
2022-10-03T07:34:49.238Z,88
2022-10-03T07:35:59.344Z,88.1
2022-10-03T07:37:09.474Z,88.1
2022-10-03T07:38:19.581Z,88.4
2022-10-03T07:39:29.704Z,88.6
2022-10-03T07:40:39.821Z,88.8
2022-10-03T07:41:49.940Z,89
2022-10-03T07:43:00.060Z,88.5
2022-10-03T07:44:09.193Z,88
2022-10-03T07:45:19.312Z,86.9
2022-10-03T07:46:29.420Z,87.8
2022-10-03T07:47:39.542Z,87.9
2022-10-03T07:48:49.671Z,86.6
2022-10-03T07:49:59.784Z,87.8
2022-10-03T07:51:09.897Z,87.4
2022-10-03T07:52:20.018Z,86.1
2022-10-03T07:53:30.136Z,86.4
2022-10-03T07:54:40.507Z,85.9
2022-10-03T07:55:50.368Z,84
2022-10-03T07:57:00.475Z,84
2022-10-03T07:58:10.593Z,83
2022-10-03T07:59:19.739Z,82.9
2022-10-03T08:00:29.855Z,83.6
2022-10-03T08:01:40.242Z,85.1
2022-10-03T08:02:50.088Z,85.8
2022-10-03T08:04:00.212Z,86.1
2022-10-03T08:05:10.583Z,86.7
2022-10-03T08:06:20.435Z,87
2022-10-03T08:07:30.564Z,86.1
2022-10-03T08:08:40.676Z,87
2022-10-03T08:09:50.801Z,86.4
2022-10-03T08:11:00.906Z,86.6
2022-10-03T08:12:11.028Z,86.3
2022-10-03T08:13:21.149Z,86.7
2022-10-03T08:14:30.281Z,87.2
2022-10-03T08:15:40.405Z,87.8
2022-10-03T08:16:50.521Z,87
2022-10-03T08:18:00.626Z,88.2
2022-10-03T08:19:10.744Z,87.4
2022-10-03T08:20:20.861Z,87.8
2022-10-03T08:21:30.986Z,89
2022-10-03T08:22:41.107Z,88.9
2022-10-03T08:23:51.225Z,88.9
2022-10-03T08:25:01.328Z,88.6
2022-10-03T08:27:21.572Z,87.5
2022-10-03T08:28:31.948Z,88.7
2022-10-03T08:29:40.825Z,88.2
2022-10-03T08:30:50.949Z,89
2022-10-03T08:32:01.067Z,89.2
2022-10-03T08:33:11.180Z,87.9
2022-10-03T08:34:21.291Z,87.4
2022-10-03T08:35:31.673Z,90.1
2022-10-03T08:36:41.529Z,91.5
2022-10-03T08:37:51.648Z,92.9
2022-10-03T08:39:01.766Z,93.9
2022-10-03T08:40:11.883Z,94.6
2022-10-03T08:41:21.010Z,95.5
2022-10-03T08:42:31.140Z,96
2022-10-03T08:43:41.246Z,96.8
2022-10-03T08:44:51.367Z,96.7
2022-10-03T08:46:01.487Z,96.8
2022-10-03T08:47:11.609Z,96.7
2022-10-03T08:48:21.731Z,95.7
2022-10-03T08:49:31.852Z,95.9
2022-10-03T08:50:41.959Z,95.4
2022-10-03T08:51:52.083Z,94.5
2022-10-03T08:53:02.186Z,94.7
2022-10-03T08:54:12.312Z,95.5
2022-10-03T08:55:22.421Z,96
2022-10-03T08:56:31.555Z,95.6
2022-10-03T08:57:41.684Z,95.8
2022-10-03T08:58:51.805Z,96
2022-10-03T09:00:01.918Z,94.6
2022-10-03T09:01:12.043Z,93.6
2022-10-03T09:02:22.143Z,92.9
2022-10-03T09:03:32.265Z,91.9
2022-10-03T09:04:42.391Z,91.1
2022-10-03T09:05:52.513Z,90.8
2022-10-03T09:07:02.631Z,90.4
2022-10-03T09:08:12.731Z,90.7
2022-10-03T09:09:22.853Z,92.8
2022-10-03T09:10:32.976Z,92.9
2022-10-03T09:11:42.106Z,93.6
2022-10-03T09:12:52.224Z,94
2022-10-03T09:14:02.353Z,93.7
2022-10-03T09:15:12.456Z,96
2022-10-03T09:16:22.579Z,95.1
2022-10-03T09:17:32.705Z,96.6
2022-10-03T09:18:42.805Z,97.4
2022-10-03T09:19:52.934Z,97.9
2022-10-03T09:21:03.039Z,99
2022-10-03T09:22:13.160Z,99.5
2022-10-03T09:23:23.282Z,100
2022-10-03T09:24:33.402Z,100
2022-10-03T09:25:43.512Z,99.8
2022-10-03T09:26:52.654Z,98.9
2022-10-03T09:28:02.771Z,97.8
2022-10-03T09:29:12.891Z,96.9
2022-10-03T09:30:23.011Z,97.1
2022-10-03T09:31:33.129Z,96.2
2022-10-03T09:32:43.231Z,95.3
2022-10-03T09:33:53.356Z,97.1
2022-10-03T09:35:03.476Z,97.3
2022-10-03T09:36:13.585Z,96.1
2022-10-03T09:37:23.703Z,96.4
2022-10-03T09:38:33.828Z,97
2022-10-03T09:39:43.948Z,95.9
2022-10-03T09:40:54.063Z,96.1
2022-10-03T09:42:03.193Z,96
2022-10-03T09:43:13.316Z,95
2022-10-03T09:44:23.439Z,95.9
2022-10-03T09:45:32.573Z,95.8
2022-10-03T09:46:41.706Z,96
2022-10-03T09:47:51.829Z,96.3
2022-10-03T09:49:00.970Z,95.8
2022-10-03T09:50:10.100Z,95.1
2022-10-03T09:51:20.225Z,93.6
2022-10-03T09:52:30.349Z,92.9
2022-10-03T09:53:40.456Z,91.4
2022-10-03T09:54:50.580Z,92.6
2022-10-03T09:56:00.693Z,92.2
2022-10-03T09:57:10.813Z,90.5
2022-10-03T09:58:20.935Z,91.7
2022-10-03T09:59:31.037Z,90.4
2022-10-03T10:00:41.155Z,91.4
2022-10-03T10:01:51.274Z,91.2
2022-10-03T10:03:01.398Z,91.5
2022-10-03T10:04:11.777Z,92.2
2022-10-03T10:05:20.637Z,91.3
2022-10-03T10:06:30.757Z,92.4
2022-10-03T10:07:40.873Z,90.7
2022-10-03T10:08:51.001Z,90.6
2022-10-03T10:10:01.122Z,91.4
2022-10-03T10:11:11.224Z,89
2022-10-03T10:12:21.348Z,90.5
2022-10-03T10:13:31.467Z,89.1
2022-10-03T10:14:41.591Z,89.7
2022-10-03T10:15:51.693Z,89.4
2022-10-03T10:17:01.821Z,87.2
2022-10-03T10:18:11.930Z,87.3
2022-10-03T10:19:22.056Z,86.5
2022-10-03T10:20:31.188Z,87.1
2022-10-03T10:21:41.313Z,86.5
2022-10-03T10:22:51.416Z,87.2
2022-10-03T10:24:01.540Z,88.2
2022-10-03T10:25:11.662Z,90.3
2022-10-03T10:26:21.784Z,90.8
2022-10-03T10:27:31.902Z,91.2
2022-10-03T10:28:42.000Z,90.9
2022-10-03T10:29:52.126Z,90.8
2022-10-03T10:31:02.252Z,88.8
2022-10-03T10:32:12.357Z,88.6
2022-10-03T10:33:22.481Z,89.3
2022-10-03T10:34:32.607Z,88
2022-10-03T10:35:41.728Z,87.2
2022-10-03T10:36:50.868Z,87.4
2022-10-03T10:38:00.287Z,87.3
2022-10-03T10:39:10.123Z,87.9
2022-10-03T10:40:20.246Z,87.8
2022-10-03T10:41:29.386Z,87.3
2022-10-03T10:42:38.519Z,86.1
2022-10-03T10:43:48.647Z,85.2
2022-10-03T10:44:58.765Z,85.5
2022-10-03T10:46:08.867Z,83.8
2022-10-03T10:47:18.989Z,85.2
2022-10-03T10:48:29.116Z,85.3
2022-10-03T10:49:39.220Z,85.2
2022-10-03T10:50:49.343Z,85.8
2022-10-03T10:51:59.461Z,86.2
2022-10-03T10:53:09.586Z,83.3
2022-10-03T10:54:19.690Z,84.4
2022-10-03T10:55:29.811Z,82.4
2022-10-03T10:56:39.931Z,83.4
2022-10-03T10:57:49.065Z,84.1
2022-10-03T10:58:59.182Z,84.8
2022-10-03T11:00:09.304Z,85
2022-10-03T11:01:19.686Z,85.1
2022-10-03T11:02:29.530Z,82.7
2022-10-03T11:03:39.657Z,84.1
2022-10-03T11:04:49.000Z,84.1
2022-10-03T11:05:59.884Z,83
2022-10-03T11:07:10.010Z,83.1
2022-10-03T11:08:20.129Z,83.5
2022-10-03T11:09:30.236Z,84
2022-10-03T11:10:40.360Z,82.6
2022-10-03T11:11:50.486Z,82
2022-10-03T11:12:59.616Z,83.8
2022-10-03T11:14:09.721Z,83.3
2022-10-03T11:15:19.845Z,83.7
2022-10-03T11:16:29.969Z,83.4
2022-10-03T11:17:40.075Z,84.9
2022-10-03T11:18:50.205Z,84
2022-10-03T11:20:00.316Z,85
2022-10-03T11:21:10.439Z,84.9
2022-10-03T11:22:20.560Z,85.9
2022-10-03T11:23:30.669Z,86.8
2022-10-03T11:24:40.779Z,86.6
2022-10-03T11:25:50.901Z,86.7
2022-10-03T11:27:01.025Z,87.8
2022-10-03T11:28:10.155Z,87.8
2022-10-03T11:29:20.281Z,88.8
2022-10-03T11:30:30.399Z,87.9
2022-10-03T11:31:40.502Z,88.1
2022-10-03T11:32:50.630Z,88.2
2022-10-03T11:34:00.998Z,88.4
2022-10-03T11:35:10.867Z,87.8
2022-10-03T11:36:20.975Z,88
2022-10-03T11:37:31.094Z,87.5
2022-10-03T11:38:41.209Z,87.2
2022-10-03T11:39:51.327Z,87.2
2022-10-03T11:41:01.453Z,86.1
2022-10-03T11:42:11.575Z,86.8
2022-10-03T11:43:20.705Z,85.8
2022-10-03T11:44:30.826Z,84.1
2022-10-03T11:45:40.934Z,84.4
2022-10-03T11:46:51.060Z,82
2022-10-03T11:48:01.169Z,80.5
2022-10-03T11:49:11.296Z,80.6
2022-10-03T11:50:21.660Z,81
2022-10-03T11:51:31.794Z,80.9
2022-10-03T11:52:41.642Z,81.3
2022-10-03T11:53:51.757Z,81.7
2022-10-03T11:55:02.138Z,80.5
2022-10-03T11:56:11.985Z,81.7
2022-10-03T11:57:22.106Z,80.7
2022-10-03T11:58:31.237Z,81.3
2022-10-03T11:59:41.362Z,79.7
2022-10-03T12:00:51.486Z,78
2022-10-03T12:02:01.607Z,77.7
2022-10-03T12:03:11.709Z,79.5
2022-10-03T12:04:21.837Z,77.8
2022-10-03T12:05:31.950Z,78.4
2022-10-03T12:06:42.062Z,77.4
2022-10-03T12:07:52.178Z,78.2
2022-10-03T12:09:02.297Z,79.3
2022-10-03T12:10:12.421Z,79.8
2022-10-03T12:11:22.534Z,80.1
2022-10-03T12:12:32.663Z,81.1
2022-10-03T12:13:41.791Z,81.4
2022-10-03T12:14:51.913Z,80.9
2022-10-03T12:16:02.032Z,78.8
2022-10-03T12:18:22.260Z,78.5
2022-10-03T12:19:32.382Z,79.3
2022-10-03T12:20:42.495Z,80.6
2022-10-03T12:21:52.622Z,80.3
2022-10-03T12:23:02.730Z,79.9
2022-10-03T12:24:12.859Z,79.5
2022-10-03T12:25:22.964Z,78.3
2022-10-03T12:26:33.087Z,77.8
2022-10-03T12:27:43.203Z,78
2022-10-03T12:28:52.331Z,78.2
2022-10-03T12:30:02.465Z,78.8
2022-10-03T12:31:12.569Z,78.5
2022-10-03T12:32:22.691Z,79.2
2022-10-03T12:33:32.817Z,79.4
2022-10-03T12:34:42.920Z,80.5
2022-10-03T12:35:52.061Z,80.2
2022-10-03T12:37:02.175Z,81.4
2022-10-03T12:38:12.298Z,81.6
2022-10-03T12:39:22.678Z,80.9
2022-10-03T12:40:32.540Z,79.9
2022-10-03T12:41:42.644Z,80.3
2022-10-03T12:42:52.762Z,80
2022-10-03T12:44:02.891Z,80.3
2022-10-03T12:45:13.006Z,80
2022-10-03T12:46:23.127Z,78.6
2022-10-03T12:47:33.247Z,78
2022-10-03T12:48:43.356Z,77.9
2022-10-03T12:49:53.476Z,77.2
2022-10-03T12:51:02.623Z,78.9
2022-10-03T12:52:12.724Z,78.7
2022-10-03T12:53:22.850Z,80.4
2022-10-03T12:54:32.971Z,80
2022-10-03T12:55:43.091Z,80.3
2022-10-03T12:56:53.210Z,80.5
2022-10-03T12:58:03.328Z,80.9
2022-10-03T12:59:13.431Z,81.5
2022-10-03T13:00:23.556Z,80.3
2022-10-03T13:01:33.679Z,79.5
2022-10-03T13:02:44.047Z,79.3
2022-10-03T13:03:53.906Z,79.4
2022-10-03T13:05:04.026Z,80.7
2022-10-03T13:06:13.156Z,80.1
2022-10-03T13:07:23.281Z,81.1
2022-10-03T13:08:33.392Z,80.8
2022-10-03T13:09:43.516Z,80.7
2022-10-03T13:10:53.635Z,81.6
2022-10-03T13:12:03.755Z,82.3
2022-10-03T13:13:13.861Z,81.2
2022-10-03T13:14:23.976Z,80.7
2022-10-03T13:15:34.105Z,80.5
2022-10-03T13:16:44.224Z,80.5
2022-10-03T13:17:54.330Z,80.5
2022-10-03T13:19:04.450Z,80
2022-10-03T13:20:14.581Z,79.8
2022-10-03T13:21:23.710Z,80.2
2022-10-03T13:22:33.829Z,80
2022-10-03T13:23:44.206Z,79.8
2022-10-03T13:24:54.333Z,80.5
2022-10-03T13:26:04.180Z,80.6
2022-10-03T13:27:14.295Z,79.3
2022-10-03T13:28:24.420Z,78.9
2022-10-03T13:29:34.522Z,80.1
2022-10-03T13:30:44.642Z,79.9
2022-10-03T13:31:54.766Z,79.5
2022-10-03T13:33:04.874Z,77.8
2022-10-03T13:35:25.125Z,77.8
2022-10-03T13:36:34.260Z,77.5
2022-10-03T13:37:44.377Z,77.1
2022-10-03T13:38:54.477Z,77.7
2022-10-03T13:40:04.597Z,78.1
2022-10-03T13:41:14.719Z,78
2022-10-03T13:42:24.845Z,78
2022-10-03T13:43:34.949Z,77.3
2022-10-03T13:44:45.065Z,77.7
2022-10-03T13:45:55.186Z,76.4
2022-10-03T13:47:05.300Z,76.4
2022-10-03T13:48:15.418Z,76.9
2022-10-03T13:49:25.539Z,75.5
2022-10-03T13:50:35.662Z,76.5
2022-10-03T13:51:44.792Z,76.9
2022-10-03T13:52:54.916Z,77.2
2022-10-03T13:54:05.033Z,78.2
2022-10-03T13:55:15.141Z,77.4
2022-10-03T13:56:25.266Z,77.7
2022-10-03T13:57:35.393Z,78.8
2022-10-03T13:58:45.756Z,79
2022-10-03T13:59:55.876Z,77.7
2022-10-03T14:01:05.744Z,77.4
2022-10-03T14:02:15.501Z,77.5
2022-10-03T14:03:25.985Z,78.2
2022-10-03T14:04:36.093Z,79
2022-10-03T14:05:46.216Z,77.8
2022-10-03T14:06:56.323Z,77.7
2022-10-03T14:08:06.443Z,78.1
2022-10-03T14:09:15.577Z,77.2
2022-10-03T14:10:25.701Z,78.4
2022-10-03T14:11:35.799Z,79.4
2022-10-03T14:12:45.924Z,78.6
2022-10-03T14:13:56.043Z,77.7
2022-10-03T14:15:06.422Z,77.4
2022-10-03T14:16:16.287Z,77.5
2022-10-03T14:17:26.399Z,76.5
2022-10-03T14:18:36.507Z,76
2022-10-03T14:19:46.627Z,76.3
2022-10-03T14:20:56.748Z,76.3
2022-10-03T14:22:06.868Z,76.3
2022-10-03T14:23:16.993Z,76.3
2022-10-03T14:24:26.125Z,76.5
2022-10-03T14:25:36.495Z,75.8
2022-10-03T14:26:46.349Z,76.3
2022-10-03T14:27:56.461Z,75.8
2022-10-03T14:29:06.587Z,77
2022-10-03T14:30:16.698Z,75.8
2022-10-03T14:31:26.815Z,75.4
2022-10-03T14:32:36.936Z,75.9
2022-10-03T14:33:47.068Z,74.5
2022-10-03T14:34:57.174Z,74.1
2022-10-03T14:36:07.288Z,72.3
2022-10-03T14:37:17.413Z,74.9
2022-10-03T14:38:27.530Z,73.7
2022-10-03T14:39:36.664Z,74.1
2022-10-03T14:40:47.035Z,75.1
2022-10-03T14:41:56.907Z,75.2
2022-10-03T14:43:07.014Z,75
2022-10-03T14:44:17.137Z,74
2022-10-03T14:45:27.258Z,70.5
2022-10-03T14:46:37.374Z,69.9
2022-10-03T14:47:47.482Z,67.6
2022-10-03T14:48:57.611Z,66.5
2022-10-03T14:50:07.716Z,66.4
2022-10-03T14:51:17.839Z,67.9
2022-10-03T14:52:27.959Z,67.6
2022-10-03T14:53:38.080Z,66.5
2022-10-03T14:54:47.208Z,65.6
2022-10-03T14:55:57.323Z,65
2022-10-03T14:57:07.450Z,67.8
2022-10-03T14:58:17.571Z,70.8
2022-10-03T14:59:27.675Z,73.4
2022-10-03T15:00:37.798Z,75.1
2022-10-03T15:01:47.907Z,75.9
2022-10-03T15:02:58.033Z,71.9
2022-10-03T15:04:08.160Z,69.3
2022-10-03T15:05:18.267Z,73.5
2022-10-03T15:06:28.376Z,76.5
2022-10-03T15:07:38.502Z,77.9
2022-10-03T15:08:48.629Z,79.2
2022-10-03T15:09:57.758Z,75.7
2022-10-03T15:11:07.866Z,76.7
2022-10-03T15:12:17.981Z,78.7
2022-10-03T15:13:28.111Z,79.7
2022-10-03T15:14:38.215Z,80.2
2022-10-03T15:15:48.342Z,79.5
2022-10-03T15:16:58.458Z,79.3
2022-10-03T15:18:08.568Z,80
2022-10-03T15:19:18.695Z,80.8
2022-10-03T15:20:28.814Z,81.3
2022-10-03T15:22:49.042Z,81.3
2022-10-03T15:23:59.420Z,81.3
2022-10-03T15:25:08.305Z,81.8
2022-10-03T15:26:18.412Z,81.4
2022-10-03T15:27:28.529Z,81.6
2022-10-03T15:28:38.652Z,81.8
2022-10-03T15:29:48.776Z,82.2
2022-10-03T15:30:58.878Z,82.8
2022-10-03T15:32:09.264Z,83.6
2022-10-03T15:33:19.112Z,83.3
2022-10-03T15:34:29.232Z,83.5
2022-10-03T15:35:39.362Z,83.5
2022-10-03T15:36:49.476Z,83.7
2022-10-03T15:37:59.593Z,83.7
2022-10-03T15:39:09.965Z,83.3
2022-10-03T15:40:18.834Z,83.8
2022-10-03T15:41:28.955Z,83.9
2022-10-03T15:42:39.086Z,84.1
2022-10-03T15:43:49.452Z,83.9
2022-10-03T15:44:59.310Z,84.2
2022-10-03T15:46:09.431Z,83.8
2022-10-03T15:47:19.549Z,83.2
2022-10-03T15:48:29.662Z,82.8
2022-10-03T15:49:39.790Z,83.6
2022-10-03T15:50:49.904Z,82.9
2022-10-03T15:52:00.275Z,83.3
2022-10-03T15:53:10.134Z,82.4